This is the latest recevied weather packets stored in our database for station/object DL4MGC-10. If no packets are shown the sender has not sent any weather packets the latest 10 day(s).
| Time | Temp. | Humidity | Pressure | Rain* | Wind** | Luminosity | Snow |
|---|---|---|---|---|---|---|---|
| 1787941579 | 18.89° C | 100% | 1015.7 hPa | - | - | - | - |
| 1787940679 | 20° C | 95% | 1015.8 hPa | - | - | - | - |
| 1787939779 | 20.56° C | 94% | 1015.4 hPa | - | - | - | - |
| 1787938878 | 20.56° C | 91% | 1015.2 hPa | - | - | - | - |
| 1787937978 | 21.11° C | 91% | 1015.6 hPa | - | - | - | - |
| 1787937078 | 20.56° C | 87% | 1015.6 hPa | - | - | - | - |
| 1787936178 | 21.11° C | 85% | 1014.3 hPa | - | - | - | - |
| 1787935278 | 21.11° C | 85% | 1014.6 hPa | - | - | - | - |
| 1787934378 | 21.67° C | 87% | 1014.6 hPa | - | - | - | - |
| 1787933478 | 22.22° C | 86% | 1014.5 hPa | - | - | - | - |
| 1787932578 | 21.67° C | 87% | 1014.4 hPa | - | - | - | - |
| 1787931678 | 22.78° C | 86% | 1014.7 hPa | - | - | - | - |
| 1787930778 | 22.22° C | 89% | 1015 hPa | - | - | - | - |
| 1787929877 | 22.22° C | 93% | 1014.7 hPa | - | - | - | - |
| 1787928977 | 21.67° C | 97% | 1014.6 hPa | - | - | - | - |
| 1787928077 | 21.11° C | 97% | 1014.4 hPa | - | - | - | - |
| 1787927177 | 21.67° C | 96% | 1015 hPa | - | - | - | - |
| 1787926277 | 21.11° C | 97% | 1015.3 hPa | - | - | - | - |
| 1787925377 | 21.67° C | 96% | 1015.4 hPa | - | - | - | - |
| 1787924477 | 21.67° C | 94% | 1014.7 hPa | - | - | - | - |
| 1787923577 | 22.78° C | 91% | 1014.6 hPa | - | - | - | - |
| 1787922677 | 21.67° C | 97% | 1014.5 hPa | - | - | - | - |
| 1787921777 | 20.56° C | 99% | 1015.3 hPa | - | - | - | - |
| 1787920876 | 21.67° C | 95% | 1016.2 hPa | - | - | - | - |
| 1787919976 | 22.78° C | 86% | 1016.3 hPa | - | - | - | - |
* Rain since midnight (hover to see other rain measurements)
** Current wind speed in m/s (hover to see current wind gust speed)